sensor_id;sensor_type;location;lat;lon;timestamp;P1;durP1;ratioP1;P2;durP2;ratioP2
58460;SDS011;45558;37.752;-97.822;2022-07-06T00:00:55;6.90;;;2.00;;
58460;SDS011;45558;37.752;-97.822;2022-07-06T00:03:20;2.92;;;2.05;;
58460;SDS011;45558;37.752;-97.822;2022-07-06T00:05:46;5.22;;;2.10;;
58460;SDS011;45558;37.752;-97.822;2022-07-06T00:08:12;10.40;;;2.50;;
58460;SDS011;45558;37.752;-97.822;2022-07-06T00:10:37;7.05;;;1.92;;
58460;SDS011;45558;37.752;-97.822;2022-07-06T00:13:03;5.38;;;2.13;;
58460;SDS011;45558;37.752;-97.822;2022-07-06T00:15:29;10.07;;;1.98;;
58460;SDS011;45558;37.752;-97.822;2022-07-06T00:17:55;11.30;;;2.20;;
58460;SDS011;45558;37.752;-97.822;2022-07-06T00:20:20;8.57;;;1.98;;
58460;SDS011;45558;37.752;-97.822;2022-07-06T00:22:46;11.60;;;2.83;;
58460;SDS011;45558;37.752;-97.822;2022-07-06T00:25:12;5.25;;;1.77;;
58460;SDS011;45558;37.752;-97.822;2022-07-06T00:27:37;8.40;;;1.90;;
58460;SDS011;45558;37.752;-97.822;2022-07-06T00:30:03;7.95;;;2.30;;
58460;SDS011;45558;37.752;-97.822;2022-07-06T00:32:29;8.60;;;2.33;;
58460;SDS011;45558;37.752;-97.822;2022-07-06T00:34:55;8.35;;;2.05;;
58460;SDS011;45558;37.752;-97.822;2022-07-06T00:37:20;8.77;;;2.03;;
58460;SDS011;45558;37.752;-97.822;2022-07-06T00:39:46;8.55;;;2.10;;
58460;SDS011;45558;37.752;-97.822;2022-07-06T00:42:12;9.80;;;2.08;;
58460;SDS011;45558;37.752;-97.822;2022-07-06T00:44:38;6.97;;;2.00;;
58460;SDS011;45558;37.752;-97.822;2022-07-06T00:47:03;8.05;;;2.35;;
58460;SDS011;45558;37.752;-97.822;2022-07-06T00:49:30;5.57;;;2.05;;
58460;SDS011;45558;37.752;-97.822;2022-07-06T00:52:14;7.25;;;2.13;;
58460;SDS011;45558;37.752;-97.822;2022-07-06T00:54:40;11.15;;;1.85;;
58460;SDS011;45558;37.752;-97.822;2022-07-06T00:57:07;6.68;;;2.00;;
58460;SDS011;45558;37.752;-97.822;2022-07-06T00:59:33;8.68;;;2.22;;
58460;SDS011;45558;37.752;-97.822;2022-07-06T01:01:58;9.55;;;2.55;;
58460;SDS011;45558;37.752;-97.822;2022-07-06T01:04:24;7.78;;;2.15;;
58460;SDS011;45558;37.752;-97.822;2022-07-06T01:06:50;8.07;;;1.77;;
58460;SDS011;45558;37.752;-97.822;2022-07-06T01:09:16;6.35;;;1.90;;
58460;SDS011;45558;37.752;-97.822;2022-07-06T01:11:42;5.97;;;1.88;;
58460;SDS011;45558;37.752;-97.822;2022-07-06T01:14:08;6.13;;;2.15;;
58460;SDS011;45558;37.752;-97.822;2022-07-06T01:16:34;4.72;;;1.60;;
58460;SDS011;45558;37.752;-97.822;2022-07-06T01:18:59;9.27;;;1.80;;
58460;SDS011;45558;37.752;-97.822;2022-07-06T01:21:25;9.02;;;2.17;;
58460;SDS011;45558;37.752;-97.822;2022-07-06T01:23:51;5.65;;;1.48;;
58460;SDS011;45558;37.752;-97.822;2022-07-06T01:26:18;5.97;;;1.77;;
58460;SDS011;45558;37.752;-97.822;2022-07-06T01:28:49;10.93;;;1.83;;
58460;SDS011;45558;37.752;-97.822;2022-07-06T01:31:17;10.27;;;2.95;;
58460;SDS011;45558;37.752;-97.822;2022-07-06T01:33:44;6.78;;;1.95;;
58460;SDS011;45558;37.752;-97.822;2022-07-06T01:36:13;7.00;;;2.03;;
58460;SDS011;45558;37.752;-97.822;2022-07-06T01:38:43;9.02;;;1.85;;
58460;SDS011;45558;37.752;-97.822;2022-07-06T01:41:15;8.25;;;2.00;;
58460;SDS011;45558;37.752;-97.822;2022-07-06T01:43:41;12.65;;;2.00;;
58460;SDS011;45558;37.752;-97.822;2022-07-06T01:46:08;14.27;;;3.00;;
58460;SDS011;45558;37.752;-97.822;2022-07-06T01:48:33;7.10;;;2.42;;
58460;SDS011;45558;37.752;-97.822;2022-07-06T01:50:59;7.00;;;2.63;;
58460;SDS011;45558;37.752;-97.822;2022-07-06T01:53:25;9.07;;;2.05;;
58460;SDS011;45558;37.752;-97.822;2022-07-06T01:55:50;8.25;;;2.13;;
58460;SDS011;45558;37.752;-97.822;2022-07-06T01:58:16;7.60;;;2.30;;
58460;SDS011;45558;37.752;-97.822;2022-07-06T02:00:42;10.23;;;2.10;;
58460;SDS011;45558;37.752;-97.822;2022-07-06T02:03:08;13.38;;;2.10;;
58460;SDS011;45558;37.752;-97.822;2022-07-06T02:05:33;8.30;;;1.70;;
58460;SDS011;45558;37.752;-97.822;2022-07-06T02:07:59;12.25;;;2.42;;
58460;SDS011;45558;37.752;-97.822;2022-07-06T02:10:25;5.32;;;1.60;;
58460;SDS011;45558;37.752;-97.822;2022-07-06T02:12:50;9.55;;;2.42;;
58460;SDS011;45558;37.752;-97.822;2022-07-06T02:15:16;9.77;;;1.63;;
58460;SDS011;45558;37.752;-97.822;2022-07-06T02:17:43;12.77;;;1.95;;
58460;SDS011;45558;37.752;-97.822;2022-07-06T02:20:09;8.43;;;1.88;;
58460;SDS011;45558;37.752;-97.822;2022-07-06T02:22:35;9.05;;;2.15;;
58460;SDS011;45558;37.752;-97.822;2022-07-06T02:25:01;9.60;;;1.70;;
58460;SDS011;45558;37.752;-97.822;2022-07-06T02:27:27;10.00;;;1.60;;
58460;SDS011;45558;37.752;-97.822;2022-07-06T02:29:54;8.55;;;1.88;;
58460;SDS011;45558;37.752;-97.822;2022-07-06T02:32:19;8.27;;;2.33;;
58460;SDS011;45558;37.752;-97.822;2022-07-06T02:34:45;8.70;;;2.10;;
58460;SDS011;45558;37.752;-97.822;2022-07-06T02:37:11;7.80;;;2.10;;
58460;SDS011;45558;37.752;-97.822;2022-07-06T02:39:36;6.55;;;1.80;;
58460;SDS011;45558;37.752;-97.822;2022-07-06T02:42:02;7.15;;;1.73;;
58460;SDS011;45558;37.752;-97.822;2022-07-06T02:44:28;7.18;;;1.75;;
58460;SDS011;45558;37.752;-97.822;2022-07-06T02:46:54;7.75;;;1.63;;
58460;SDS011;45558;37.752;-97.822;2022-07-06T02:49:19;9.80;;;2.33;;
58460;SDS011;45558;37.752;-97.822;2022-07-06T02:51:45;12.27;;;1.80;;
58460;SDS011;45558;37.752;-97.822;2022-07-06T02:54:11;6.88;;;1.70;;
58460;SDS011;45558;37.752;-97.822;2022-07-06T02:56:36;9.02;;;2.97;;
58460;SDS011;45558;37.752;-97.822;2022-07-06T02:59:02;8.77;;;2.42;;
58460;SDS011;45558;37.752;-97.822;2022-07-06T03:01:28;8.07;;;1.75;;
58460;SDS011;45558;37.752;-97.822;2022-07-06T03:03:53;8.00;;;1.75;;
58460;SDS011;45558;37.752;-97.822;2022-07-06T03:06:19;6.55;;;1.55;;
58460;SDS011;45558;37.752;-97.822;2022-07-06T03:08:44;6.20;;;1.23;;
58460;SDS011;45558;37.752;-97.822;2022-07-06T03:11:10;5.70;;;1.73;;
58460;SDS011;45558;37.752;-97.822;2022-07-06T03:13:36;9.00;;;1.60;;
58460;SDS011;45558;37.752;-97.822;2022-07-06T03:16:02;6.38;;;1.45;;
58460;SDS011;45558;37.752;-97.822;2022-07-06T03:18:27;6.50;;;1.23;;
58460;SDS011;45558;37.752;-97.822;2022-07-06T03:20:53;11.13;;;3.00;;
58460;SDS011;45558;37.752;-97.822;2022-07-06T03:23:19;7.45;;;1.63;;
58460;SDS011;45558;37.752;-97.822;2022-07-06T03:25:45;7.50;;;1.40;;
58460;SDS011;45558;37.752;-97.822;2022-07-06T03:28:11;6.10;;;1.40;;
58460;SDS011;45558;37.752;-97.822;2022-07-06T03:30:37;8.18;;;1.30;;
58460;SDS011;45558;37.752;-97.822;2022-07-06T03:33:02;9.00;;;1.58;;
58460;SDS011;45558;37.752;-97.822;2022-07-06T03:35:28;7.03;;;1.33;;
58460;SDS011;45558;37.752;-97.822;2022-07-06T03:37:54;8.07;;;1.55;;
58460;SDS011;45558;37.752;-97.822;2022-07-06T03:40:20;5.38;;;1.50;;
58460;SDS011;45558;37.752;-97.822;2022-07-06T03:42:45;6.00;;;1.40;;
58460;SDS011;45558;37.752;-97.822;2022-07-06T03:45:11;8.98;;;1.35;;
58460;SDS011;45558;37.752;-97.822;2022-07-06T03:47:37;5.30;;;1.20;;
58460;SDS011;45558;37.752;-97.822;2022-07-06T03:50:03;7.60;;;1.60;;
58460;SDS011;45558;37.752;-97.822;2022-07-06T03:52:29;9.68;;;1.25;;
58460;SDS011;45558;37.752;-97.822;2022-07-06T03:54:55;5.25;;;1.83;;
58460;SDS011;45558;37.752;-97.822;2022-07-06T03:57:21;8.82;;;1.70;;
58460;SDS011;45558;37.752;-97.822;2022-07-06T03:59:47;12.23;;;1.77;;
58460;SDS011;45558;37.752;-97.822;2022-07-06T04:02:13;6.80;;;1.40;;
58460;SDS011;45558;37.752;-97.822;2022-07-06T04:04:39;6.85;;;1.67;;
58460;SDS011;45558;37.752;-97.822;2022-07-06T04:07:04;6.97;;;1.42;;
58460;SDS011;45558;37.752;-97.822;2022-07-06T04:09:30;6.05;;;1.35;;
58460;SDS011;45558;37.752;-97.822;2022-07-06T04:11:56;8.00;;;1.30;;
58460;SDS011;45558;37.752;-97.822;2022-07-06T04:17:43;4.07;;;1.40;;
58460;SDS011;45558;37.752;-97.822;2022-07-06T04:20:18;6.40;;;1.40;;
58460;SDS011;45558;37.752;-97.822;2022-07-06T04:22:44;7.80;;;1.48;;
58460;SDS011;45558;37.752;-97.822;2022-07-06T04:25:09;7.20;;;1.27;;
58460;SDS011;45558;37.752;-97.822;2022-07-06T04:27:35;11.73;;;1.80;;
58460;SDS011;45558;37.752;-97.822;2022-07-06T04:30:05;8.43;;;1.58;;
58460;SDS011;45558;37.752;-97.822;2022-07-06T04:32:31;6.05;;;1.25;;
58460;SDS011;45558;37.752;-97.822;2022-07-06T04:34:57;10.13;;;1.50;;
58460;SDS011;45558;37.752;-97.822;2022-07-06T04:37:23;10.57;;;1.77;;
58460;SDS011;45558;37.752;-97.822;2022-07-06T04:39:49;5.45;;;1.33;;
58460;SDS011;45558;37.752;-97.822;2022-07-06T04:42:14;9.15;;;1.60;;
58460;SDS011;45558;37.752;-97.822;2022-07-06T04:44:40;7.13;;;1.30;;
58460;SDS011;45558;37.752;-97.822;2022-07-06T04:47:05;7.30;;;1.20;;
58460;SDS011;45558;37.752;-97.822;2022-07-06T04:49:31;7.05;;;1.67;;
58460;SDS011;45558;37.752;-97.822;2022-07-06T04:51:57;10.27;;;1.60;;
58460;SDS011;45558;37.752;-97.822;2022-07-06T04:57:45;7.00;;;1.15;;
58460;SDS011;45558;37.752;-97.822;2022-07-06T05:00:11;7.95;;;1.10;;
58460;SDS011;45558;37.752;-97.822;2022-07-06T05:02:37;7.97;;;1.63;;
58460;SDS011;45558;37.752;-97.822;2022-07-06T05:05:03;5.78;;;1.15;;
58460;SDS011;45558;37.752;-97.822;2022-07-06T05:07:29;8.35;;;1.40;;
58460;SDS011;45558;37.752;-97.822;2022-07-06T05:09:57;3.58;;;1.52;;
58460;SDS011;45558;37.752;-97.822;2022-07-06T05:12:22;8.82;;;1.10;;
58460;SDS011;45558;37.752;-97.822;2022-07-06T05:14:48;4.35;;;1.10;;
58460;SDS011;45558;37.752;-97.822;2022-07-06T05:17:14;6.93;;;1.23;;
58460;SDS011;45558;37.752;-97.822;2022-07-06T05:19:41;7.82;;;1.20;;
58460;SDS011;45558;37.752;-97.822;2022-07-06T05:22:07;6.00;;;2.22;;
58460;SDS011;45558;37.752;-97.822;2022-07-06T05:24:34;8.65;;;2.20;;
58460;SDS011;45558;37.752;-97.822;2022-07-06T05:27:00;9.88;;;2.30;;
58460;SDS011;45558;37.752;-97.822;2022-07-06T05:29:26;6.30;;;1.88;;
58460;SDS011;45558;37.752;-97.822;2022-07-06T05:31:52;5.20;;;1.00;;
58460;SDS011;45558;37.752;-97.822;2022-07-06T05:34:18;10.07;;;1.27;;
58460;SDS011;45558;37.752;-97.822;2022-07-06T05:36:44;4.28;;;0.90;;
58460;SDS011;45558;37.752;-97.822;2022-07-06T05:39:10;9.43;;;1.10;;
58460;SDS011;45558;37.752;-97.822;2022-07-06T05:41:35;3.97;;;1.08;;
58460;SDS011;45558;37.752;-97.822;2022-07-06T05:44:01;6.55;;;1.05;;
58460;SDS011;45558;37.752;-97.822;2022-07-06T05:46:27;4.85;;;1.70;;
58460;SDS011;45558;37.752;-97.822;2022-07-06T05:48:53;4.80;;;0.70;;
58460;SDS011;45558;37.752;-97.822;2022-07-06T05:51:38;6.85;;;1.30;;
58460;SDS011;45558;37.752;-97.822;2022-07-06T05:54:03;3.85;;;1.48;;
58460;SDS011;45558;37.752;-97.822;2022-07-06T05:56:29;5.07;;;1.92;;
58460;SDS011;45558;37.752;-97.822;2022-07-06T05:58:55;6.10;;;1.20;;
58460;SDS011;45558;37.752;-97.822;2022-07-06T06:01:21;3.47;;;0.90;;
58460;SDS011;45558;37.752;-97.822;2022-07-06T06:07:08;4.70;;;0.90;;
58460;SDS011;45558;37.752;-97.822;2022-07-06T06:09:34;6.00;;;0.85;;
58460;SDS011;45558;37.752;-97.822;2022-07-06T06:12:00;5.30;;;0.80;;
58460;SDS011;45558;37.752;-97.822;2022-07-06T06:17:48;4.70;;;0.90;;
58460;SDS011;45558;37.752;-97.822;2022-07-06T06:20:14;5.13;;;1.08;;
58460;SDS011;45558;37.752;-97.822;2022-07-06T06:22:44;9.05;;;0.75;;
58460;SDS011;45558;37.752;-97.822;2022-07-06T06:25:17;5.75;;;1.55;;
58460;SDS011;45558;37.752;-97.822;2022-07-06T06:27:44;6.70;;;1.80;;
58460;SDS011;45558;37.752;-97.822;2022-07-06T06:30:10;6.28;;;0.90;;
58460;SDS011;45558;37.752;-97.822;2022-07-06T06:32:37;6.20;;;1.38;;
58460;SDS011;45558;37.752;-97.822;2022-07-06T06:35:04;3.92;;;1.02;;
58460;SDS011;45558;37.752;-97.822;2022-07-06T06:37:30;7.28;;;1.30;;
58460;SDS011;45558;37.752;-97.822;2022-07-06T06:39:59;4.32;;;0.77;;
58460;SDS011;45558;37.752;-97.822;2022-07-06T06:42:25;4.57;;;0.90;;
58460;SDS011;45558;37.752;-97.822;2022-07-06T06:44:51;3.13;;;1.05;;
58460;SDS011;45558;37.752;-97.822;2022-07-06T06:47:17;5.88;;;1.05;;
58460;SDS011;45558;37.752;-97.822;2022-07-06T06:49:44;7.50;;;1.35;;
58460;SDS011;45558;37.752;-97.822;2022-07-06T06:52:10;5.90;;;1.88;;
58460;SDS011;45558;37.752;-97.822;2022-07-06T06:54:35;4.43;;;0.70;;
58460;SDS011;45558;37.752;-97.822;2022-07-06T06:57:01;10.15;;;1.80;;
58460;SDS011;45558;37.752;-97.822;2022-07-06T06:59:27;5.15;;;0.93;;
58460;SDS011;45558;37.752;-97.822;2022-07-06T07:01:54;5.65;;;1.05;;
58460;SDS011;45558;37.752;-97.822;2022-07-06T07:04:20;4.55;;;0.95;;
58460;SDS011;45558;37.752;-97.822;2022-07-06T07:06:46;10.30;;;1.08;;
58460;SDS011;45558;37.752;-97.822;2022-07-06T07:09:12;5.63;;;0.77;;
58460;SDS011;45558;37.752;-97.822;2022-07-06T07:11:38;5.65;;;0.55;;
58460;SDS011;45558;37.752;-97.822;2022-07-06T07:17:25;2.97;;;1.00;;
58460;SDS011;45558;37.752;-97.822;2022-07-06T07:19:51;6.07;;;1.20;;
58460;SDS011;45558;37.752;-97.822;2022-07-06T07:22:17;7.32;;;0.95;;
58460;SDS011;45558;37.752;-97.822;2022-07-06T07:24:44;4.95;;;1.00;;
58460;SDS011;45558;37.752;-97.822;2022-07-06T07:27:10;7.05;;;0.82;;
58460;SDS011;45558;37.752;-97.822;2022-07-06T07:29:36;3.17;;;0.60;;
58460;SDS011;45558;37.752;-97.822;2022-07-06T07:32:02;3.35;;;0.82;;
58460;SDS011;45558;37.752;-97.822;2022-07-06T07:34:28;3.17;;;0.88;;
58460;SDS011;45558;37.752;-97.822;2022-07-06T07:36:54;5.38;;;1.38;;
58460;SDS011;45558;37.752;-97.822;2022-07-06T07:39:20;3.15;;;0.70;;
58460;SDS011;45558;37.752;-97.822;2022-07-06T07:41:45;5.07;;;0.68;;
58460;SDS011;45558;37.752;-97.822;2022-07-06T07:47:33;4.20;;;0.90;;
58460;SDS011;45558;37.752;-97.822;2022-07-06T07:49:59;2.72;;;0.90;;
58460;SDS011;45558;37.752;-97.822;2022-07-06T07:52:25;7.00;;;0.98;;
58460;SDS011;45558;37.752;-97.822;2022-07-06T07:54:50;5.78;;;0.70;;
58460;SDS011;45558;37.752;-97.822;2022-07-06T07:57:17;4.43;;;0.80;;
58460;SDS011;45558;37.752;-97.822;2022-07-06T07:59:43;8.98;;;1.40;;
58460;SDS011;45558;37.752;-97.822;2022-07-06T08:02:08;2.70;;;0.65;;
58460;SDS011;45558;37.752;-97.822;2022-07-06T08:04:34;2.13;;;0.65;;
58460;SDS011;45558;37.752;-97.822;2022-07-06T08:07:00;3.03;;;1.27;;
58460;SDS011;45558;37.752;-97.822;2022-07-06T08:09:26;4.03;;;1.00;;
58460;SDS011;45558;37.752;-97.822;2022-07-06T08:11:52;5.38;;;0.70;;
58460;SDS011;45558;37.752;-97.822;2022-07-06T08:14:17;5.10;;;0.95;;
58460;SDS011;45558;37.752;-97.822;2022-07-06T08:20:06;3.05;;;0.70;;
58460;SDS011;45558;37.752;-97.822;2022-07-06T08:22:33;3.33;;;0.80;;
58460;SDS011;45558;37.752;-97.822;2022-07-06T08:25:01;0.90;;;0.55;;
58460;SDS011;45558;37.752;-97.822;2022-07-06T08:27:28;18.63;;;1.95;;
58460;SDS011;45558;37.752;-97.822;2022-07-06T08:29:54;3.72;;;0.68;;
58460;SDS011;45558;37.752;-97.822;2022-07-06T08:32:21;3.15;;;0.80;;
58460;SDS011;45558;37.752;-97.822;2022-07-06T08:34:47;1.35;;;0.50;;
58460;SDS011;45558;37.752;-97.822;2022-07-06T08:37:13;2.83;;;0.70;;
58460;SDS011;45558;37.752;-97.822;2022-07-06T08:39:39;1.95;;;0.63;;
58460;SDS011;45558;37.752;-97.822;2022-07-06T08:42:07;2.28;;;0.57;;
58460;SDS011;45558;37.752;-97.822;2022-07-06T08:44:33;6.22;;;0.80;;
58460;SDS011;45558;37.752;-97.822;2022-07-06T08:47:02;1.80;;;0.60;;
58460;SDS011;45558;37.752;-97.822;2022-07-06T08:49:31;4.25;;;0.80;;
58460;SDS011;45558;37.752;-97.822;2022-07-06T08:51:58;1.90;;;0.75;;
58460;SDS011;45558;37.752;-97.822;2022-07-06T08:57:47;1.52;;;0.60;;
58460;SDS011;45558;37.752;-97.822;2022-07-06T09:00:13;3.88;;;0.90;;
58460;SDS011;45558;37.752;-97.822;2022-07-06T09:02:40;4.68;;;0.80;;
58460;SDS011;45558;37.752;-97.822;2022-07-06T09:05:07;2.67;;;1.02;;
58460;SDS011;45558;37.752;-97.822;2022-07-06T09:07:34;3.45;;;1.40;;
58460;SDS011;45558;37.752;-97.822;2022-07-06T09:10:00;6.55;;;0.90;;
58460;SDS011;45558;37.752;-97.822;2022-07-06T09:12:28;4.03;;;1.00;;
58460;SDS011;45558;37.752;-97.822;2022-07-06T09:14:55;4.78;;;1.13;;
58460;SDS011;45558;37.752;-97.822;2022-07-06T09:17:24;4.10;;;1.00;;
58460;SDS011;45558;37.752;-97.822;2022-07-06T09:19:52;5.63;;;1.00;;
58460;SDS011;45558;37.752;-97.822;2022-07-06T09:22:28;1.73;;;0.70;;
58460;SDS011;45558;37.752;-97.822;2022-07-06T09:25:07;4.47;;;0.80;;
58460;SDS011;45558;37.752;-97.822;2022-07-06T09:27:38;5.57;;;1.95;;
58460;SDS011;45558;37.752;-97.822;2022-07-06T09:30:09;4.38;;;0.95;;
58460;SDS011;45558;37.752;-97.822;2022-07-06T09:32:39;4.00;;;1.00;;
58460;SDS011;45558;37.752;-97.822;2022-07-06T09:35:06;10.30;;;1.15;;
58460;SDS011;45558;37.752;-97.822;2022-07-06T09:40:53;7.55;;;3.50;;
58460;SDS011;45558;37.752;-97.822;2022-07-06T09:43:23;3.97;;;0.70;;
58460;SDS011;45558;37.752;-97.822;2022-07-06T09:45:50;4.40;;;1.10;;
58460;SDS011;45558;37.752;-97.822;2022-07-06T09:50:50;2.33;;;0.90;;
58460;SDS011;45558;37.752;-97.822;2022-07-06T09:53:21;4.60;;;1.00;;
58460;SDS011;45558;37.752;-97.822;2022-07-06T09:55:50;4.05;;;1.02;;
58460;SDS011;45558;37.752;-97.822;2022-07-06T09:58:17;3.72;;;1.10;;
58460;SDS011;45558;37.752;-97.822;2022-07-06T10:00:44;4.30;;;1.05;;
58460;SDS011;45558;37.752;-97.822;2022-07-06T10:03:11;5.68;;;1.17;;
58460;SDS011;45558;37.752;-97.822;2022-07-06T10:05:39;7.68;;;1.70;;
58460;SDS011;45558;37.752;-97.822;2022-07-06T10:08:07;4.95;;;1.17;;
58460;SDS011;45558;37.752;-97.822;2022-07-06T10:10:35;4.25;;;1.20;;
58460;SDS011;45558;37.752;-97.822;2022-07-06T10:13:02;7.75;;;1.20;;
58460;SDS011;45558;37.752;-97.822;2022-07-06T10:15:29;6.05;;;1.25;;
58460;SDS011;45558;37.752;-97.822;2022-07-06T10:17:57;6.18;;;1.40;;
58460;SDS011;45558;37.752;-97.822;2022-07-06T10:20:23;6.40;;;2.05;;
58460;SDS011;45558;37.752;-97.822;2022-07-06T10:22:53;6.37;;;1.23;;
58460;SDS011;45558;37.752;-97.822;2022-07-06T10:25:20;3.42;;;1.00;;
58460;SDS011;45558;37.752;-97.822;2022-07-06T10:27:47;3.80;;;1.05;;
58460;SDS011;45558;37.752;-97.822;2022-07-06T10:30:16;2.97;;;1.20;;
58460;SDS011;45558;37.752;-97.822;2022-07-06T10:32:42;7.30;;;1.55;;
58460;SDS011;45558;37.752;-97.822;2022-07-06T10:35:09;5.00;;;1.67;;
58460;SDS011;45558;37.752;-97.822;2022-07-06T10:37:35;4.53;;;1.13;;
58460;SDS011;45558;37.752;-97.822;2022-07-06T10:40:01;6.03;;;1.33;;
58460;SDS011;45558;37.752;-97.822;2022-07-06T10:46:04;1.88;;;1.20;;
58460;SDS011;45558;37.752;-97.822;2022-07-06T10:50:39;5.35;;;1.05;;
58460;SDS011;45558;37.752;-97.822;2022-07-06T10:53:10;3.45;;;1.00;;
58460;SDS011;45558;37.752;-97.822;2022-07-06T10:55:37;5.32;;;1.40;;
58460;SDS011;45558;37.752;-97.822;2022-07-06T10:58:08;3.78;;;1.17;;
58460;SDS011;45558;37.752;-97.822;2022-07-06T11:00:51;7.90;;;1.23;;
58460;SDS011;45558;37.752;-97.822;2022-07-06T11:03:34;7.57;;;1.37;;
58460;SDS011;45558;37.752;-97.822;2022-07-06T11:06:11;8.00;;;1.60;;
58460;SDS011;45558;37.752;-97.822;2022-07-06T11:11:26;6.53;;;1.13;;
58460;SDS011;45558;37.752;-97.822;2022-07-06T11:14:11;6.63;;;1.30;;
58460;SDS011;45558;37.752;-97.822;2022-07-06T11:19:17;5.82;;;1.40;;
58460;SDS011;45558;37.752;-97.822;2022-07-06T11:21:48;5.40;;;1.00;;
58460;SDS011;45558;37.752;-97.822;2022-07-06T11:27:05;5.50;;;1.27;;
58460;SDS011;45558;37.752;-97.822;2022-07-06T11:29:32;5.32;;;1.10;;
58460;SDS011;45558;37.752;-97.822;2022-07-06T11:32:00;10.40;;;1.60;;
58460;SDS011;45558;37.752;-97.822;2022-07-06T11:34:29;4.70;;;1.10;;
58460;SDS011;45558;37.752;-97.822;2022-07-06T11:37:00;5.60;;;1.52;;
58460;SDS011;45558;37.752;-97.822;2022-07-06T11:39:31;5.82;;;1.08;;
58460;SDS011;45558;37.752;-97.822;2022-07-06T11:41:58;7.85;;;1.38;;
58460;SDS011;45558;37.752;-97.822;2022-07-06T11:44:31;5.88;;;1.50;;
58460;SDS011;45558;37.752;-97.822;2022-07-06T11:46:57;3.85;;;1.27;;
58460;SDS011;45558;37.752;-97.822;2022-07-06T11:49:26;4.63;;;1.27;;
58460;SDS011;45558;37.752;-97.822;2022-07-06T11:51:52;9.77;;;1.30;;
58460;SDS011;45558;37.752;-97.822;2022-07-06T11:57:40;4.45;;;0.88;;
58460;SDS011;45558;37.752;-97.822;2022-07-06T12:00:06;9.80;;;1.55;;
58460;SDS011;45558;37.752;-97.822;2022-07-06T12:05:54;3.42;;;0.98;;
58460;SDS011;45558;37.752;-97.822;2022-07-06T12:08:20;4.97;;;1.02;;
58460;SDS011;45558;37.752;-97.822;2022-07-06T12:10:46;3.03;;;0.98;;
58460;SDS011;45558;37.752;-97.822;2022-07-06T12:13:12;3.60;;;0.95;;
58460;SDS011;45558;37.752;-97.822;2022-07-06T12:15:38;3.80;;;0.90;;
58460;SDS011;45558;37.752;-97.822;2022-07-06T12:18:04;3.42;;;0.80;;
58460;SDS011;45558;37.752;-97.822;2022-07-06T12:20:30;2.08;;;0.60;;
58460;SDS011;45558;37.752;-97.822;2022-07-06T12:23:02;3.13;;;0.50;;
58460;SDS011;45558;37.752;-97.822;2022-07-06T12:25:32;3.80;;;1.00;;
58460;SDS011;45558;37.752;-97.822;2022-07-06T12:27:58;2.58;;;0.60;;
58460;SDS011;45558;37.752;-97.822;2022-07-06T12:30:24;3.17;;;0.82;;
58460;SDS011;45558;37.752;-97.822;2022-07-06T12:33:23;2.22;;;0.70;;
58460;SDS011;45558;37.752;-97.822;2022-07-06T12:35:46;1.83;;;0.57;;
58460;SDS011;45558;37.752;-97.822;2022-07-06T12:38:11;2.35;;;0.50;;
58460;SDS011;45558;37.752;-97.822;2022-07-06T12:40:37;1.42;;;0.40;;
58460;SDS011;45558;37.752;-97.822;2022-07-06T12:43:04;1.70;;;0.45;;
58460;SDS011;45558;37.752;-97.822;2022-07-06T12:45:31;1.55;;;0.30;;
58460;SDS011;45558;37.752;-97.822;2022-07-06T12:47:58;1.15;;;0.40;;
58460;SDS011;45558;37.752;-97.822;2022-07-06T12:50:35;1.85;;;0.20;;
58460;SDS011;45558;37.752;-97.822;2022-07-06T12:53:02;0.75;;;0.20;;
58460;SDS011;45558;37.752;-97.822;2022-07-06T12:55:29;1.30;;;0.22;;
58460;SDS011;45558;37.752;-97.822;2022-07-06T12:57:55;1.65;;;0.35;;
58460;SDS011;45558;37.752;-97.822;2022-07-06T13:00:22;3.90;;;0.43;;
58460;SDS011;45558;37.752;-97.822;2022-07-06T13:02:51;1.98;;;0.40;;
58460;SDS011;45558;37.752;-97.822;2022-07-06T13:05:22;0.98;;;0.30;;
58460;SDS011;45558;37.752;-97.822;2022-07-06T13:07:53;1.25;;;0.30;;
58460;SDS011;45558;37.752;-97.822;2022-07-06T13:10:20;0.63;;;0.30;;
58460;SDS011;45558;37.752;-97.822;2022-07-06T13:12:45;1.77;;;0.20;;
58460;SDS011;45558;37.752;-97.822;2022-07-06T13:15:12;1.45;;;0.30;;
58460;SDS011;45558;37.752;-97.822;2022-07-06T13:17:39;1.83;;;0.40;;
58460;SDS011;45558;37.752;-97.822;2022-07-06T13:20:06;0.85;;;0.30;;
58460;SDS011;45558;37.752;-97.822;2022-07-06T13:22:36;1.45;;;0.38;;
58460;SDS011;45558;37.752;-97.822;2022-07-06T13:25:02;0.35;;;0.28;;
58460;SDS011;45558;37.752;-97.822;2022-07-06T13:27:28;2.35;;;0.52;;
58460;SDS011;45558;37.752;-97.822;2022-07-06T13:29:55;1.08;;;0.30;;
58460;SDS011;45558;37.752;-97.822;2022-07-06T13:32:23;2.05;;;0.40;;
58460;SDS011;45558;37.752;-97.822;2022-07-06T13:34:48;2.05;;;0.28;;
58460;SDS011;45558;37.752;-97.822;2022-07-06T13:37:14;0.55;;;0.30;;
58460;SDS011;45558;37.752;-97.822;2022-07-06T13:39:40;1.20;;;0.40;;
58460;SDS011;45558;37.752;-97.822;2022-07-06T13:42:06;0.32;;;0.20;;
58460;SDS011;45558;37.752;-97.822;2022-07-06T13:44:35;1.58;;;0.40;;
58460;SDS011;45558;37.752;-97.822;2022-07-06T13:47:01;1.33;;;0.30;;
58460;SDS011;45558;37.752;-97.822;2022-07-06T13:49:27;0.45;;;0.20;;
58460;SDS011;45558;37.752;-97.822;2022-07-06T13:51:52;1.10;;;0.30;;
58460;SDS011;45558;37.752;-97.822;2022-07-06T13:54:20;5.43;;;0.50;;
58460;SDS011;45558;37.752;-97.822;2022-07-06T13:56:46;2.40;;;0.52;;
58460;SDS011;45558;37.752;-97.822;2022-07-06T13:59:12;0.75;;;0.30;;
58460;SDS011;45558;37.752;-97.822;2022-07-06T14:01:37;1.08;;;0.28;;
58460;SDS011;45558;37.752;-97.822;2022-07-06T14:04:04;2.22;;;0.30;;
58460;SDS011;45558;37.752;-97.822;2022-07-06T14:06:29;1.55;;;0.32;;
58460;SDS011;45558;37.752;-97.822;2022-07-06T14:08:55;1.75;;;0.40;;
58460;SDS011;45558;37.752;-97.822;2022-07-06T14:11:21;4.88;;;0.63;;
58460;SDS011;45558;37.752;-97.822;2022-07-06T14:13:47;5.05;;;0.50;;
58460;SDS011;45558;37.752;-97.822;2022-07-06T14:16:13;3.42;;;0.40;;
58460;SDS011;45558;37.752;-97.822;2022-07-06T14:18:39;4.75;;;1.02;;
58460;SDS011;45558;37.752;-97.822;2022-07-06T14:21:05;3.25;;;0.63;;
58460;SDS011;45558;37.752;-97.822;2022-07-06T14:23:31;2.80;;;0.90;;
58460;SDS011;45558;37.752;-97.822;2022-07-06T14:25:57;4.10;;;0.80;;
58460;SDS011;45558;37.752;-97.822;2022-07-06T14:28:23;2.17;;;0.52;;
58460;SDS011;45558;37.752;-97.822;2022-07-06T14:30:49;6.35;;;0.68;;
58460;SDS011;45558;37.752;-97.822;2022-07-06T14:33:15;2.97;;;0.65;;
58460;SDS011;45558;37.752;-97.822;2022-07-06T14:35:43;2.80;;;0.63;;
58460;SDS011;45558;37.752;-97.822;2022-07-06T14:38:12;4.13;;;0.63;;
58460;SDS011;45558;37.752;-97.822;2022-07-06T14:40:39;2.88;;;0.70;;
58460;SDS011;45558;37.752;-97.822;2022-07-06T14:43:05;3.20;;;0.65;;
58460;SDS011;45558;37.752;-97.822;2022-07-06T14:45:32;8.82;;;2.25;;
58460;SDS011;45558;37.752;-97.822;2022-07-06T14:47:58;2.22;;;0.90;;
58460;SDS011;45558;37.752;-97.822;2022-07-06T14:50:23;7.57;;;1.58;;
58460;SDS011;45558;37.752;-97.822;2022-07-06T14:52:50;4.30;;;0.95;;
58460;SDS011;45558;37.752;-97.822;2022-07-06T14:55:16;3.60;;;1.55;;
58460;SDS011;45558;37.752;-97.822;2022-07-06T14:57:42;4.78;;;1.48;;
58460;SDS011;45558;37.752;-97.822;2022-07-06T15:00:08;6.80;;;1.67;;
58460;SDS011;45558;37.752;-97.822;2022-07-06T15:02:35;8.25;;;2.38;;
58460;SDS011;45558;37.752;-97.822;2022-07-06T15:05:00;6.50;;;1.48;;
58460;SDS011;45558;37.752;-97.822;2022-07-06T15:07:26;5.28;;;1.33;;
58460;SDS011;45558;37.752;-97.822;2022-07-06T15:09:53;6.13;;;0.85;;
58460;SDS011;45558;37.752;-97.822;2022-07-06T15:12:19;8.68;;;1.55;;